sensor_id;sensor_type;location;lat;lon;timestamp;pressure;altitude;pressure_sealevel;temperature
48854;BMP280;34673;52.808;17.856;2023-06-26T00:02:22;100449.59;;;18.60
48854;BMP280;34673;52.808;17.856;2023-06-26T00:04:49;100433.06;;;18.58
48854;BMP280;34673;52.808;17.856;2023-06-26T00:07:20;100437.50;;;18.56
48854;BMP280;34673;52.808;17.856;2023-06-26T00:09:47;100431.72;;;18.48
48854;BMP280;34673;52.808;17.856;2023-06-26T00:12:15;100442.47;;;18.42
48854;BMP280;34673;52.808;17.856;2023-06-26T00:14:42;100446.25;;;18.35
48854;BMP280;34673;52.808;17.856;2023-06-26T00:17:09;100441.84;;;18.35
48854;BMP280;34673;52.808;17.856;2023-06-26T00:19:36;100445.50;;;18.31
48854;BMP280;34673;52.808;17.856;2023-06-26T00:22:03;100439.41;;;18.31
48854;BMP280;34673;52.808;17.856;2023-06-26T00:24:31;100446.59;;;18.26
48854;BMP280;34673;52.808;17.856;2023-06-26T00:26:58;100439.78;;;18.22
48854;BMP280;34673;52.808;17.856;2023-06-26T00:29:25;100443.28;;;18.21
48854;BMP280;34673;52.808;17.856;2023-06-26T00:31:52;100446.81;;;18.20
48854;BMP280;34673;52.808;17.856;2023-06-26T00:34:20;100443.41;;;18.17
48854;BMP280;34673;52.808;17.856;2023-06-26T00:36:47;100439.41;;;18.07
48854;BMP280;34673;52.808;17.856;2023-06-26T00:39:15;100442.03;;;18.07
48854;BMP280;34673;52.808;17.856;2023-06-26T00:41:42;100450.00;;;18.04
48854;BMP280;34673;52.808;17.856;2023-06-26T00:44:10;100440.59;;;18.00
48854;BMP280;34673;52.808;17.856;2023-06-26T00:46:38;100444.00;;;18.02
48854;BMP280;34673;52.808;17.856;2023-06-26T00:49:05;100430.31;;;17.94
48854;BMP280;34673;52.808;17.856;2023-06-26T00:51:33;100433.75;;;17.96
48854;BMP280;34673;52.808;17.856;2023-06-26T00:54:00;100438.97;;;17.96
48854;BMP280;34673;52.808;17.856;2023-06-26T00:56:28;100437.28;;;17.95
48854;BMP280;34673;52.808;17.856;2023-06-26T00:58:56;100437.50;;;17.89
48854;BMP280;34673;52.808;17.856;2023-06-26T01:01:25;100437.41;;;17.92
48854;BMP280;34673;52.808;17.856;2023-06-26T01:03:53;100425.44;;;17.85
48854;BMP280;34673;52.808;17.856;2023-06-26T01:06:22;100427.25;;;17.83
48854;BMP280;34673;52.808;17.856;2023-06-26T01:08:51;100434.22;;;17.84
48854;BMP280;34673;52.808;17.856;2023-06-26T01:11:18;100433.44;;;17.80
48854;BMP280;34673;52.808;17.856;2023-06-26T01:13:46;100431.84;;;17.76
48854;BMP280;34673;52.808;17.856;2023-06-26T01:16:15;100429.38;;;17.71
48854;BMP280;34673;52.808;17.856;2023-06-26T01:18:46;100427.81;;;17.67
48854;BMP280;34673;52.808;17.856;2023-06-26T01:21:16;100432.13;;;17.68
48854;BMP280;34673;52.808;17.856;2023-06-26T01:24:04;100427.91;;;17.64
48854;BMP280;34673;52.808;17.856;2023-06-26T01:26:34;100427.91;;;17.64
48854;BMP280;34673;52.808;17.856;2023-06-26T01:29:03;100423.41;;;17.68
48854;BMP280;34673;52.808;17.856;2023-06-26T01:31:32;100425.31;;;17.64
48854;BMP280;34673;52.808;17.856;2023-06-26T01:34:01;100414.31;;;17.55
48854;BMP280;34673;52.808;17.856;2023-06-26T01:36:28;100420.97;;;17.63
48854;BMP280;34673;52.808;17.856;2023-06-26T01:38:56;100419.31;;;17.61
48854;BMP280;34673;52.808;17.856;2023-06-26T01:41:23;100422.88;;;17.58
48854;BMP280;34673;52.808;17.856;2023-06-26T01:44:07;100423.09;;;17.52
48854;BMP280;34673;52.808;17.856;2023-06-26T01:46:59;100426.94;;;17.42
48854;BMP280;34673;52.808;17.856;2023-06-26T01:49:34;100416.69;;;17.37
48854;BMP280;34673;52.808;17.856;2023-06-26T01:52:21;100414.91;;;17.38
48854;BMP280;34673;52.808;17.856;2023-06-26T01:57:47;100407.94;;;17.37
48854;BMP280;34673;52.808;17.856;2023-06-26T02:00:17;100403.75;;;17.33
48854;BMP280;34673;52.808;17.856;2023-06-26T02:02:45;100405.41;;;17.35
48854;BMP280;34673;52.808;17.856;2023-06-26T02:05:13;100408.84;;;17.37
48854;BMP280;34673;52.808;17.856;2023-06-26T02:07:42;100409.41;;;17.45
48854;BMP280;34673;52.808;17.856;2023-06-26T02:10:10;100393.88;;;17.41
48854;BMP280;34673;52.808;17.856;2023-06-26T02:12:38;100397.41;;;17.40
48854;BMP280;34673;52.808;17.856;2023-06-26T02:15:06;100397.28;;;17.43
48854;BMP280;34673;52.808;17.856;2023-06-26T02:17:34;100396.50;;;17.41
48854;BMP280;34673;52.808;17.856;2023-06-26T02:20:01;100390.44;;;17.39
48854;BMP280;34673;52.808;17.856;2023-06-26T02:22:28;100394.00;;;17.38
48854;BMP280;34673;52.808;17.856;2023-06-26T02:24:56;100395.78;;;17.36
48854;BMP280;34673;52.808;17.856;2023-06-26T02:27:23;100390.72;;;17.31
48854;BMP280;34673;52.808;17.856;2023-06-26T02:29:52;100380.63;;;17.20
48854;BMP280;34673;52.808;17.856;2023-06-26T02:32:19;100390.97;;;17.23
48854;BMP280;34673;52.808;17.856;2023-06-26T02:34:49;100387.63;;;17.20
48854;BMP280;34673;52.808;17.856;2023-06-26T02:37:18;100396.66;;;17.11
48854;BMP280;34673;52.808;17.856;2023-06-26T02:39:46;100400.06;;;17.13
48854;BMP280;34673;52.808;17.856;2023-06-26T02:42:14;100399.22;;;17.13
48854;BMP280;34673;52.808;17.856;2023-06-26T02:44:41;100388.22;;;17.03
48854;BMP280;34673;52.808;17.856;2023-06-26T02:47:08;100395.94;;;17.06
48854;BMP280;34673;52.808;17.856;2023-06-26T02:49:39;100397.66;;;17.07
48854;BMP280;34673;52.808;17.856;2023-06-26T02:52:06;100391.53;;;17.08
48854;BMP280;34673;52.808;17.856;2023-06-26T02:54:34;100396.53;;;17.14
48854;BMP280;34673;52.808;17.856;2023-06-26T02:57:03;100393.22;;;17.09
48854;BMP280;34673;52.808;17.856;2023-06-26T02:59:32;100394.06;;;17.10
48854;BMP280;34673;52.808;17.856;2023-06-26T03:02:00;100400.94;;;17.14
48854;BMP280;34673;52.808;17.856;2023-06-26T03:04:32;100390.41;;;17.15
48854;BMP280;34673;52.808;17.856;2023-06-26T03:07:05;100387.78;;;17.15
48854;BMP280;34673;52.808;17.856;2023-06-26T03:09:33;100392.13;;;17.16
48854;BMP280;34673;52.808;17.856;2023-06-26T03:12:00;100392.94;;;17.18
48854;BMP280;34673;52.808;17.856;2023-06-26T03:14:28;100390.25;;;17.20
48854;BMP280;34673;52.808;17.856;2023-06-26T03:16:56;100381.59;;;17.18
48854;BMP280;34673;52.808;17.856;2023-06-26T03:19:27;100387.59;;;17.21
48854;BMP280;34673;52.808;17.856;2023-06-26T03:22:14;100386.63;;;17.24
48854;BMP280;34673;52.808;17.856;2023-06-26T03:24:41;100384.75;;;17.27
48854;BMP280;34673;52.808;17.856;2023-06-26T03:27:08;100382.75;;;17.34
48854;BMP280;34673;52.808;17.856;2023-06-26T03:29:36;100374.88;;;17.36
48854;BMP280;34673;52.808;17.856;2023-06-26T03:32:04;100376.50;;;17.40
48854;BMP280;34673;52.808;17.856;2023-06-26T03:34:32;100383.31;;;17.44
48854;BMP280;34673;52.808;17.856;2023-06-26T03:36:59;100379.69;;;17.48
48854;BMP280;34673;52.808;17.856;2023-06-26T03:39:27;100372.50;;;17.53
48854;BMP280;34673;52.808;17.856;2023-06-26T03:41:54;100375.03;;;17.56
48854;BMP280;34673;52.808;17.856;2023-06-26T03:44:22;100376.72;;;17.57
48854;BMP280;34673;52.808;17.856;2023-06-26T03:46:49;100385.94;;;17.67
48854;BMP280;34673;52.808;17.856;2023-06-26T03:49:16;100387.41;;;17.75
48854;BMP280;34673;52.808;17.856;2023-06-26T03:51:45;100383.81;;;17.79
48854;BMP280;34673;52.808;17.856;2023-06-26T03:54:13;100380.91;;;17.86
48854;BMP280;34673;52.808;17.856;2023-06-26T03:56:41;100378.97;;;17.91
48854;BMP280;34673;52.808;17.856;2023-06-26T03:59:09;100375.19;;;17.99
48854;BMP280;34673;52.808;17.856;2023-06-26T04:01:37;100377.75;;;18.00
48854;BMP280;34673;52.808;17.856;2023-06-26T04:04:05;100386.16;;;18.08
48854;BMP280;34673;52.808;17.856;2023-06-26T04:06:32;100375.47;;;18.14
48854;BMP280;34673;52.808;17.856;2023-06-26T04:09:00;100375.22;;;18.21
48854;BMP280;34673;52.808;17.856;2023-06-26T04:11:27;100376.84;;;18.23
48854;BMP280;34673;52.808;17.856;2023-06-26T04:13:54;100381.78;;;18.31
48854;BMP280;34673;52.808;17.856;2023-06-26T04:16:22;100369.63;;;18.30
48854;BMP280;34673;52.808;17.856;2023-06-26T04:18:52;100367.69;;;18.35
48854;BMP280;34673;52.808;17.856;2023-06-26T04:21:20;100378.78;;;18.40
48854;BMP280;34673;52.808;17.856;2023-06-26T04:23:47;100369.13;;;18.42
48854;BMP280;34673;52.808;17.856;2023-06-26T04:26:14;100374.09;;;18.48
48854;BMP280;34673;52.808;17.856;2023-06-26T04:28:42;100366.25;;;18.48
48854;BMP280;34673;52.808;17.856;2023-06-26T04:31:10;100377.25;;;18.56
48854;BMP280;34673;52.808;17.856;2023-06-26T04:33:37;100373.63;;;18.60
48854;BMP280;34673;52.808;17.856;2023-06-26T04:36:08;100376.91;;;18.66
48854;BMP280;34673;52.808;17.856;2023-06-26T04:38:36;100375.84;;;18.70
48854;BMP280;34673;52.808;17.856;2023-06-26T04:41:03;100371.53;;;18.69
48854;BMP280;34673;52.808;17.856;2023-06-26T04:43:30;100371.53;;;18.69
48854;BMP280;34673;52.808;17.856;2023-06-26T04:45:58;100371.16;;;18.78
48854;BMP280;34673;52.808;17.856;2023-06-26T04:48:25;100372.75;;;18.82
48854;BMP280;34673;52.808;17.856;2023-06-26T04:50:55;100372.50;;;18.88
48854;BMP280;34673;52.808;17.856;2023-06-26T04:53:23;100373.16;;;18.93
48854;BMP280;34673;52.808;17.856;2023-06-26T04:55:51;100374.53;;;19.02
48854;BMP280;34673;52.808;17.856;2023-06-26T04:58:19;100375.28;;;19.06
48854;BMP280;34673;52.808;17.856;2023-06-26T05:00:46;100375.06;;;19.10
48854;BMP280;34673;52.808;17.856;2023-06-26T05:03:17;100374.03;;;19.14
48854;BMP280;34673;52.808;17.856;2023-06-26T05:05:45;100373.03;;;19.17
48854;BMP280;34673;52.808;17.856;2023-06-26T05:08:16;100374.59;;;19.21
48854;BMP280;34673;52.808;17.856;2023-06-26T05:10:44;100370.00;;;19.26
48854;BMP280;34673;52.808;17.856;2023-06-26T05:13:12;100370.66;;;19.31
48854;BMP280;34673;52.808;17.856;2023-06-26T05:15:42;100365.25;;;19.34
48854;BMP280;34673;52.808;17.856;2023-06-26T05:18:09;100370.22;;;19.40
48854;BMP280;34673;52.808;17.856;2023-06-26T05:20:37;100369.19;;;19.44
48854;BMP280;34673;52.808;17.856;2023-06-26T05:23:05;100363.00;;;19.45
48854;BMP280;34673;52.808;17.856;2023-06-26T05:25:32;100374.81;;;19.56
48854;BMP280;34673;52.808;17.856;2023-06-26T05:28:03;100360.75;;;19.57
48854;BMP280;34673;52.808;17.856;2023-06-26T05:30:35;100369.13;;;19.65
48854;BMP280;34673;52.808;17.856;2023-06-26T05:33:03;100368.91;;;19.71
48854;BMP280;34673;52.808;17.856;2023-06-26T05:35:34;100360.03;;;19.74
48854;BMP280;34673;52.808;17.856;2023-06-26T05:38:01;100359.66;;;19.81
48854;BMP280;34673;52.808;17.856;2023-06-26T05:40:29;100355.84;;;19.88
48854;BMP280;34673;52.808;17.856;2023-06-26T05:42:56;100350.59;;;19.88
48854;BMP280;34673;52.808;17.856;2023-06-26T05:45:23;100355.28;;;20.01
48854;BMP280;34673;52.808;17.856;2023-06-26T05:47:51;100358.53;;;20.06
48854;BMP280;34673;52.808;17.856;2023-06-26T05:50:19;100354.69;;;20.13
48854;BMP280;34673;52.808;17.856;2023-06-26T05:52:47;100337.09;;;20.15
48854;BMP280;34673;52.808;17.856;2023-06-26T05:55:14;100351.97;;;20.33
48854;BMP280;34673;52.808;17.856;2023-06-26T05:57:42;100348.88;;;20.43
48854;BMP280;34673;52.808;17.856;2023-06-26T06:00:10;100347.66;;;20.50
48854;BMP280;34673;52.808;17.856;2023-06-26T06:02:42;100354.16;;;20.60
48854;BMP280;34673;52.808;17.856;2023-06-26T06:05:09;100346.78;;;20.68
48854;BMP280;34673;52.808;17.856;2023-06-26T06:07:37;100344.63;;;20.76
48854;BMP280;34673;52.808;17.856;2023-06-26T06:10:04;100347.22;;;20.94
48854;BMP280;34673;52.808;17.856;2023-06-26T06:12:32;100348.28;;;21.07
48854;BMP280;34673;52.808;17.856;2023-06-26T06:14:59;100347.63;;;21.19
48854;BMP280;34673;52.808;17.856;2023-06-26T06:17:26;100351.50;;;21.30
48854;BMP280;34673;52.808;17.856;2023-06-26T06:19:53;100343.00;;;21.42
48854;BMP280;34673;52.808;17.856;2023-06-26T06:22:20;100345.72;;;21.56
48854;BMP280;34673;52.808;17.856;2023-06-26T06:24:51;100341.69;;;21.66
48854;BMP280;34673;52.808;17.856;2023-06-26T06:27:18;100339.31;;;21.78
48854;BMP280;34673;52.808;17.856;2023-06-26T06:29:45;100344.66;;;21.92
48854;BMP280;34673;52.808;17.856;2023-06-26T06:32:12;100334.34;;;22.03
48854;BMP280;34673;52.808;17.856;2023-06-26T06:34:40;100328.09;;;22.22
48854;BMP280;34673;52.808;17.856;2023-06-26T06:37:07;100336.06;;;22.36
48854;BMP280;34673;52.808;17.856;2023-06-26T06:39:34;100335.19;;;22.51
48854;BMP280;34673;52.808;17.856;2023-06-26T06:42:01;100334.94;;;22.70
48854;BMP280;34673;52.808;17.856;2023-06-26T06:44:29;100335.66;;;22.88
48854;BMP280;34673;52.808;17.856;2023-06-26T06:46:57;100337.88;;;23.10
48854;BMP280;34673;52.808;17.856;2023-06-26T06:49:24;100335.91;;;23.28
48854;BMP280;34673;52.808;17.856;2023-06-26T06:51:52;100335.41;;;23.50
48854;BMP280;34673;52.808;17.856;2023-06-26T06:54:19;100324.94;;;23.63
48854;BMP280;34673;52.808;17.856;2023-06-26T06:56:46;100325.91;;;23.76
48854;BMP280;34673;52.808;17.856;2023-06-26T06:59:13;100329.25;;;23.93
48854;BMP280;34673;52.808;17.856;2023-06-26T07:01:42;100318.63;;;24.07
48854;BMP280;34673;52.808;17.856;2023-06-26T07:04:09;100324.63;;;24.23
48854;BMP280;34673;52.808;17.856;2023-06-26T07:06:37;100332.97;;;24.44
48854;BMP280;34673;52.808;17.856;2023-06-26T07:09:04;100331.75;;;24.63
48854;BMP280;34673;52.808;17.856;2023-06-26T07:11:32;100335.13;;;24.77
48854;BMP280;34673;52.808;17.856;2023-06-26T07:14:00;100332.22;;;24.95
48854;BMP280;34673;52.808;17.856;2023-06-26T07:16:27;100336.22;;;25.13
48854;BMP280;34673;52.808;17.856;2023-06-26T07:18:54;100333.50;;;25.28
48854;BMP280;34673;52.808;17.856;2023-06-26T07:21:22;100335.06;;;25.43
48854;BMP280;34673;52.808;17.856;2023-06-26T07:23:52;100328.16;;;25.53
48854;BMP280;34673;52.808;17.856;2023-06-26T07:26:19;100330.66;;;25.68
48854;BMP280;34673;52.808;17.856;2023-06-26T07:29:09;100321.56;;;25.72
48854;BMP280;34673;52.808;17.856;2023-06-26T07:31:36;100325.78;;;25.87
48854;BMP280;34673;52.808;17.856;2023-06-26T07:34:03;100324.16;;;25.97
48854;BMP280;34673;52.808;17.856;2023-06-26T07:36:30;100329.72;;;26.05
48854;BMP280;34673;52.808;17.856;2023-06-26T07:38:57;100324.16;;;26.21
48854;BMP280;34673;52.808;17.856;2023-06-26T07:41:25;100288.78;;;26.09
48854;BMP280;34673;52.808;17.856;2023-06-26T07:43:52;100323.88;;;26.37
48854;BMP280;34673;52.808;17.856;2023-06-26T07:46:19;100319.81;;;26.44
48854;BMP280;34673;52.808;17.856;2023-06-26T07:48:46;100318.50;;;26.50
48854;BMP280;34673;52.808;17.856;2023-06-26T07:51:13;100318.22;;;26.66
48854;BMP280;34673;52.808;17.856;2023-06-26T07:53:41;100319.56;;;26.83
48854;BMP280;34673;52.808;17.856;2023-06-26T07:56:08;100313.69;;;26.90
48854;BMP280;34673;52.808;17.856;2023-06-26T07:58:35;100288.31;;;26.86
48854;BMP280;34673;52.808;17.856;2023-06-26T08:01:05;100319.00;;;27.13
48854;BMP280;34673;52.808;17.856;2023-06-26T08:03:32;100310.13;;;27.25
48854;BMP280;34673;52.808;17.856;2023-06-26T08:06:02;100316.13;;;27.38
48854;BMP280;34673;52.808;17.856;2023-06-26T08:08:30;100312.03;;;27.46
48854;BMP280;34673;52.808;17.856;2023-06-26T08:10:57;100300.19;;;27.61
48854;BMP280;34673;52.808;17.856;2023-06-26T08:13:25;100303.06;;;27.69
48854;BMP280;34673;52.808;17.856;2023-06-26T08:15:52;100292.78;;;27.76
48854;BMP280;34673;52.808;17.856;2023-06-26T08:18:19;100298.22;;;27.86
48854;BMP280;34673;52.808;17.856;2023-06-26T08:20:46;100304.72;;;27.93
48854;BMP280;34673;52.808;17.856;2023-06-26T08:23:13;100289.72;;;28.03
48854;BMP280;34673;52.808;17.856;2023-06-26T08:25:41;100298.41;;;28.05
48854;BMP280;34673;52.808;17.856;2023-06-26T08:28:08;100288.72;;;28.15
48854;BMP280;34673;52.808;17.856;2023-06-26T08:30:35;100295.44;;;28.19
48854;BMP280;34673;52.808;17.856;2023-06-26T08:33:03;100296.38;;;28.29
48854;BMP280;34673;52.808;17.856;2023-06-26T08:35:30;100297.06;;;28.43
48854;BMP280;34673;52.808;17.856;2023-06-26T08:37:57;100295.34;;;28.53
48854;BMP280;34673;52.808;17.856;2023-06-26T08:40:25;100291.63;;;28.65
48854;BMP280;34673;52.808;17.856;2023-06-26T08:42:53;100272.53;;;28.60
48854;BMP280;34673;52.808;17.856;2023-06-26T08:45:21;100299.03;;;28.83
48854;BMP280;34673;52.808;17.856;2023-06-26T08:47:51;100293.44;;;28.86
48854;BMP280;34673;52.808;17.856;2023-06-26T08:50:23;100294.84;;;28.90
48854;BMP280;34673;52.808;17.856;2023-06-26T08:52:56;100289.25;;;28.93
48854;BMP280;34673;52.808;17.856;2023-06-26T08:55:28;100294.63;;;29.03
48854;BMP280;34673;52.808;17.856;2023-06-26T08:57:56;100294.00;;;29.10
48854;BMP280;34673;52.808;17.856;2023-06-26T09:00:24;100291.34;;;29.10
48854;BMP280;34673;52.808;17.856;2023-06-26T09:02:51;100290.22;;;29.13
48854;BMP280;34673;52.808;17.856;2023-06-26T09:05:18;100284.94;;;29.23
48854;BMP280;34673;52.808;17.856;2023-06-26T09:07:46;100279.09;;;29.29
48854;BMP280;34673;52.808;17.856;2023-06-26T09:10:13;100286.09;;;29.30
48854;BMP280;34673;52.808;17.856;2023-06-26T09:12:40;100274.03;;;29.35
48854;BMP280;34673;52.808;17.856;2023-06-26T09:15:08;100276.03;;;29.43
48854;BMP280;34673;52.808;17.856;2023-06-26T09:17:39;100270.44;;;29.46
48854;BMP280;34673;52.808;17.856;2023-06-26T09:20:09;100267.53;;;29.59
48854;BMP280;34673;52.808;17.856;2023-06-26T09:22:38;100264.19;;;29.67
48854;BMP280;34673;52.808;17.856;2023-06-26T09:25:06;100272.47;;;29.73
48854;BMP280;34673;52.808;17.856;2023-06-26T09:27:34;100269.94;;;29.72
48854;BMP280;34673;52.808;17.856;2023-06-26T09:30:06;100269.66;;;29.75
48854;BMP280;34673;52.808;17.856;2023-06-26T09:32:37;100260.81;;;29.74
48854;BMP280;34673;52.808;17.856;2023-06-26T09:35:05;100260.97;;;29.82
48854;BMP280;34673;52.808;17.856;2023-06-26T09:37:32;100267.72;;;29.96
48854;BMP280;34673;52.808;17.856;2023-06-26T09:40:01;100263.81;;;30.00
48854;BMP280;34673;52.808;17.856;2023-06-26T09:42:29;100262.41;;;30.06
48854;BMP280;34673;52.808;17.856;2023-06-26T09:44:57;100257.03;;;29.96
48854;BMP280;34673;52.808;17.856;2023-06-26T09:47:24;100258.03;;;29.95
48854;BMP280;34673;52.808;17.856;2023-06-26T09:49:51;100262.13;;;29.99
48854;BMP280;34673;52.808;17.856;2023-06-26T09:52:19;100268.00;;;30.13
48854;BMP280;34673;52.808;17.856;2023-06-26T09:54:46;100258.91;;;30.25
48854;BMP280;34673;52.808;17.856;2023-06-26T09:57:16;100246.94;;;30.29
48854;BMP280;34673;52.808;17.856;2023-06-26T09:59:44;100256.78;;;30.38
48854;BMP280;34673;52.808;17.856;2023-06-26T10:02:15;100245.00;;;30.41
48854;BMP280;34673;52.808;17.856;2023-06-26T10:04:42;100250.88;;;30.44
48854;BMP280;34673;52.808;17.856;2023-06-26T10:07:11;100245.81;;;30.41
48854;BMP280;34673;52.808;17.856;2023-06-26T10:09:43;100241.34;;;30.32
48854;BMP280;34673;52.808;17.856;2023-06-26T10:12:17;100247.50;;;30.42
48854;BMP280;34673;52.808;17.856;2023-06-26T10:14:46;100239.63;;;30.51
48854;BMP280;34673;52.808;17.856;2023-06-26T10:17:19;100237.66;;;30.53
48854;BMP280;34673;52.808;17.856;2023-06-26T10:19:47;100235.69;;;30.55
48854;BMP280;34673;52.808;17.856;2023-06-26T10:22:17;100235.41;;;30.58
48854;BMP280;34673;52.808;17.856;2023-06-26T10:24:45;100233.44;;;30.60
48854;BMP280;34673;52.808;17.856;2023-06-26T10:27:19;100228.78;;;30.62
48854;BMP280;34673;52.808;17.856;2023-06-26T10:29:50;100224.72;;;30.58
48854;BMP280;34673;52.808;17.856;2023-06-26T10:32:20;100228.09;;;30.60
48854;BMP280;34673;52.808;17.856;2023-06-26T10:34:48;100215.03;;;30.57
48854;BMP280;34673;52.808;17.856;2023-06-26T10:37:15;100217.94;;;30.63
48854;BMP280;34673;52.808;17.856;2023-06-26T10:42:14;100216.50;;;30.79
48854;BMP280;34673;52.808;17.856;2023-06-26T10:44:46;100219.59;;;30.84
48854;BMP280;34673;52.808;17.856;2023-06-26T10:47:30;100215.66;;;30.78
48854;BMP280;34673;52.808;17.856;2023-06-26T10:50:18;100213.84;;;30.69
48854;BMP280;34673;52.808;17.856;2023-06-26T10:53:09;100214.25;;;30.74
48854;BMP280;34673;52.808;17.856;2023-06-26T10:55:39;100213.97;;;30.77
48854;BMP280;34673;52.808;17.856;2023-06-26T10:58:34;100209.50;;;30.68
48854;BMP280;34673;52.808;17.856;2023-06-26T11:03:39;100214.63;;;30.52
48854;BMP280;34673;52.808;17.856;2023-06-26T11:08:44;100199.97;;;30.56
48854;BMP280;34673;52.808;17.856;2023-06-26T11:11:12;100197.88;;;30.59
48854;BMP280;34673;52.808;17.856;2023-06-26T11:13:41;100204.88;;;30.70
48854;BMP280;34673;52.808;17.856;2023-06-26T11:16:08;100182.69;;;30.60
48854;BMP280;34673;52.808;17.856;2023-06-26T11:18:35;100202.22;;;30.70
48854;BMP280;34673;52.808;17.856;2023-06-26T11:21:10;100208.91;;;30.74
48854;BMP280;34673;52.808;17.856;2023-06-26T11:23:41;100200.47;;;30.79
48854;BMP280;34673;52.808;17.856;2023-06-26T11:26:19;100203.81;;;30.90
48854;BMP280;34673;52.808;17.856;2023-06-26T11:28:56;100199.88;;;30.95
48854;BMP280;34673;52.808;17.856;2023-06-26T11:31:28;100198.59;;;30.99
48854;BMP280;34673;52.808;17.856;2023-06-26T11:33:58;100189.47;;;30.91
48854;BMP280;34673;52.808;17.856;2023-06-26T11:36:27;100193.75;;;30.84
48854;BMP280;34673;52.808;17.856;2023-06-26T11:39:04;100197.09;;;30.77
48854;BMP280;34673;52.808;17.856;2023-06-26T11:41:35;100188.97;;;30.78
48854;BMP280;34673;52.808;17.856;2023-06-26T11:44:04;100188.97;;;30.78
48854;BMP280;34673;52.808;17.856;2023-06-26T11:46:34;100187.00;;;30.80
48854;BMP280;34673;52.808;17.856;2023-06-26T11:49:05;100191.22;;;30.73
48854;BMP280;34673;52.808;17.856;2023-06-26T11:51:33;100183.41;;;30.62
48854;BMP280;34673;52.808;17.856;2023-06-26T11:54:01;100183.00;;;30.57
48854;BMP280;34673;52.808;17.856;2023-06-26T11:56:32;100182.88;;;30.48
48854;BMP280;34673;52.808;17.856;2023-06-26T12:01:41;100177.84;;;30.45
48854;BMP280;34673;52.808;17.856;2023-06-26T12:04:10;100173.59;;;30.53
48854;BMP280;34673;52.808;17.856;2023-06-26T12:06:39;100173.28;;;30.56
48854;BMP280;34673;52.808;17.856;2023-06-26T12:09:09;100173.56;;;30.62
48854;BMP280;34673;52.808;17.856;2023-06-26T12:11:42;100163.13;;;30.69
48854;BMP280;34673;52.808;17.856;2023-06-26T12:14:11;100160.63;;;30.58
48854;BMP280;34673;52.808;17.856;2023-06-26T12:16:39;100167.94;;;30.56
48854;BMP280;34673;52.808;17.856;2023-06-26T12:19:08;100164.00;;;30.60
48854;BMP280;34673;52.808;17.856;2023-06-26T12:24:12;100158.25;;;30.55
48854;BMP280;34673;52.808;17.856;2023-06-26T12:26:49;100151.97;;;30.46
48854;BMP280;34673;52.808;17.856;2023-06-26T12:29:17;100157.03;;;30.49
48854;BMP280;34673;52.808;17.856;2023-06-26T12:31:52;100149.44;;;30.44
48854;BMP280;34673;52.808;17.856;2023-06-26T12:34:25;100152.13;;;30.44
48854;BMP280;34673;52.808;17.856;2023-06-26T12:36:52;100144.09;;;30.44
48854;BMP280;34673;52.808;17.856;2023-06-26T12:39:20;100145.81;;;30.45
48854;BMP280;34673;52.808;17.856;2023-06-26T12:41:54;100140.16;;;30.48
48854;BMP280;34673;52.808;17.856;2023-06-26T12:44:27;100136.50;;;30.50
48854;BMP280;34673;52.808;17.856;2023-06-26T12:46:57;100129.50;;;30.48
48854;BMP280;34673;52.808;17.856;2023-06-26T12:49:30;100128.09;;;30.44
48854;BMP280;34673;52.808;17.856;2023-06-26T12:52:00;100125.41;;;30.44
48854;BMP280;34673;52.808;17.856;2023-06-26T12:54:28;100125.31;;;30.36
48854;BMP280;34673;52.808;17.856;2023-06-26T12:56:56;100124.47;;;30.36
48854;BMP280;34673;52.808;17.856;2023-06-26T12:59:23;100119.72;;;30.30
48854;BMP280;34673;52.808;17.856;2023-06-26T13:01:50;100120.84;;;30.27
48854;BMP280;34673;52.808;17.856;2023-06-26T13:04:18;100117.19;;;30.28
48854;BMP280;34673;52.808;17.856;2023-06-26T13:06:45;100113.81;;;30.26
48854;BMP280;34673;52.808;17.856;2023-06-26T13:09:12;100107.38;;;30.19
48854;BMP280;34673;52.808;17.856;2023-06-26T13:11:40;100108.50;;;30.07
48854;BMP280;34673;52.808;17.856;2023-06-26T13:14:07;100105.44;;;30.01
48854;BMP280;34673;52.808;17.856;2023-06-26T13:16:38;100102.09;;;29.99
48854;BMP280;34673;52.808;17.856;2023-06-26T13:19:06;100079.06;;;29.98
48854;BMP280;34673;52.808;17.856;2023-06-26T13:21:34;100093.09;;;30.00
48854;BMP280;34673;52.808;17.856;2023-06-26T13:24:02;100092.81;;;30.03
48854;BMP280;34673;52.808;17.856;2023-06-26T13:26:30;100078.91;;;30.00
48854;BMP280;34673;52.808;17.856;2023-06-26T13:29:02;100076.25;;;30.00
48854;BMP280;34673;52.808;17.856;2023-06-26T13:31:29;100077.09;;;30.00
48854;BMP280;34673;52.808;17.856;2023-06-26T13:33:58;100068.97;;;29.92
48854;BMP280;34673;52.808;17.856;2023-06-26T13:36:26;100067.56;;;29.88
48854;BMP280;34673;52.808;17.856;2023-06-26T13:38:54;100066.19;;;29.84
48854;BMP280;34673;52.808;17.856;2023-06-26T13:41:25;100062.22;;;29.88
48854;BMP280;34673;52.808;17.856;2023-06-26T13:43:52;100057.19;;;29.85
48854;BMP280;34673;52.808;17.856;2023-06-26T13:46:23;100056.34;;;29.85
48854;BMP280;34673;52.808;17.856;2023-06-26T13:48:50;100045.97;;;29.81
48854;BMP280;34673;52.808;17.856;2023-06-26T13:51:17;100047.41;;;29.76
48854;BMP280;34673;52.808;17.856;2023-06-26T13:53:45;100044.03;;;29.74
48854;BMP280;34673;52.808;17.856;2023-06-26T13:56:12;100042.34;;;29.73
48854;BMP280;34673;52.808;17.856;2023-06-26T13:58:39;100034.22;;;29.65
48854;BMP280;34673;52.808;17.856;2023-06-26T14:01:06;100029.03;;;29.53
48854;BMP280;34673;52.808;17.856;2023-06-26T14:03:34;100019.34;;;29.52
48854;BMP280;34673;52.808;17.856;2023-06-26T14:06:01;100023.00;;;29.51
48854;BMP280;34673;52.808;17.856;2023-06-26T14:08:28;100018.38;;;29.44
48854;BMP280;34673;52.808;17.856;2023-06-26T14:10:55;100011.78;;;29.38